Time;durP1;ratioP1;P1;durP2;ratioP2;P2;SDS_P1;SDS_P2;PMS_P1;PMS_P2;Temp;Humidity;BMP_temperature;BMP_pressure;BME280_temperature;BME280_humidity;BME280_pressure;Samples;Min_cycle;Max_cycle;Signal;HPM_P1;HPM_P2
2022/06/03 00:00:05;;;;;;;9.85;4.78;;;11.60;89.40;;;;;;4993359;28;20029;-60
2022/06/03 00:03:26;;;;;;;13.95;5.57;;;11.70;88.40;;;;;;5010785;28;20085;-59
2022/06/03 00:06:21;;;;;;;7.63;3.88;;;11.80;86.00;;;;;;5016393;28;20124;-59
2022/06/03 00:09:07;;;;;;;8.18;4.35;;;11.80;83.60;;;;;;4961706;28;20108;-60
2022/06/03 00:12:05;;;;;;;9.20;4.15;;;12.00;86.90;;;;;;5012113;28;20096;-60
2022/06/03 00:14:36;;;;;;;9.80;4.18;;;12.00;82.60;;;;;;5014328;28;20780;-60
2022/06/03 00:17:39;;;;;;;8.60;3.75;;;12.00;83.00;;;;;;5021286;28;20079;-60
2022/06/03 00:20:27;;;;;;;8.55;3.40;;;12.10;82.20;;;;;;4993448;28;20058;-60
2022/06/03 00:23:22;;;;;;;7.15;3.33;;;12.20;83.40;;;;;;5013550;28;20478;-60
2022/06/03 00:25:55;;;;;;;5.35;3.53;;;12.40;81.40;;;;;;5010179;28;20552;-58
2022/06/03 00:28:36;;;;;;;9.60;3.13;;;12.40;80.50;;;;;;5014060;28;20032;-60
2022/06/03 00:31:16;;;;;;;4.55;2.45;;;12.40;81.60;;;;;;4993663;28;20108;-59
2022/06/03 00:34:00;;;;;;;8.52;3.40;;;12.40;81.20;;;;;;5012361;28;20116;-59
2022/06/03 00:37:00;;;;;;;7.32;3.00;;;12.60;79.70;;;;;;5015397;28;20496;-60
2022/06/03 00:39:50;;;;;;;6.82;3.45;;;12.80;79.50;;;;;;5022233;28;20022;-59
2022/06/03 00:42:55;;;;;;;8.88;3.33;;;12.90;77.30;;;;;;5010186;28;20029;-59
2022/06/03 00:45:37;;;;;;;4.50;2.83;;;13.10;78.50;;;;;;5014749;28;20033;-59
2022/06/03 00:48:10;;;;;;;7.10;3.38;;;13.20;76.70;;;;;;5018155;28;20406;-59
2022/06/03 00:51:03;;;;;;;6.72;3.20;;;13.20;75.00;;;;;;5013921;28;20033;-60
2022/06/03 00:53:45;;;;;;;5.03;3.13;;;13.20;75.70;;;;;;5001351;28;20033;-57
2022/06/03 00:56:33;;;;;;;7.07;2.80;;;13.30;75.50;;;;;;5009605;28;20049;-58
2022/06/03 00:59:23;;;;;;;7.05;3.75;;;13.20;74.60;;;;;;5010439;28;20018;-59
2022/06/03 01:02:35;;;;;;;6.35;3.60;;;13.30;77.50;;;;;;5004481;28;20026;-58
2022/06/03 01:05:29;;;;;;;10.95;4.28;;;13.30;75.80;;;;;;5001943;28;20034;-58
2022/06/03 01:08:13;;;;;;;7.10;3.92;;;13.30;73.90;;;;;;5011844;28;20033;-59
2022/06/03 01:10:49;;;;;;;12.02;5.47;;;13.40;75.30;;;;;;5012874;28;20033;-59
2022/06/03 01:13:48;;;;;;;7.57;3.90;;;13.50;76.70;;;;;;5025042;28;20028;-58
2022/06/03 01:16:40;;;;;;;11.05;5.65;;;13.70;76.10;;;;;;4988193;28;20037;-59
2022/06/03 01:19:37;;;;;;;6.88;4.00;;;13.80;75.20;;;;;;5020377;28;20115;-59
2022/06/03 01:22:22;;;;;;;6.32;3.40;;;13.90;73.20;;;;;;5000884;28;20491;-58
2022/06/03 01:25:16;;;;;;;5.97;3.70;;;14.00;75.00;;;;;;5022232;28;20118;-58
2022/06/03 01:28:08;;;;;;;5.40;3.50;;;14.10;72.90;;;;;;4997018;28;20087;-58
2022/06/03 01:30:35;;;;;;;4.18;3.35;;;14.10;72.30;;;;;;5009663;28;20077;-58
2022/06/03 01:33:26;;;;;;;6.88;4.13;;;14.10;72.90;;;;;;5013565;28;20038;-58
2022/06/03 01:36:15;;;;;;;8.93;3.05;;;14.20;72.00;;;;;;5011756;28;20063;-56
2022/06/03 01:39:10;;;;;;;3.90;2.80;;;14.30;72.70;;;;;;5024902;28;20529;-60
2022/06/03 01:42:05;;;;;;;5.30;2.67;;;14.40;70.50;;;;;;5003102;28;20045;-56
2022/06/03 01:44:56;;;;;;;7.63;3.35;;;14.40;71.60;;;;;;5008204;28;20036;-58
2022/06/03 01:47:49;;;;;;;4.03;2.40;;;14.50;73.30;;;;;;4990587;28;20395;-59
2022/06/03 01:50:47;;;;;;;2.60;1.40;;;14.60;71.90;;;;;;4991990;28;20025;-58
2022/06/03 01:53:17;;;;;;;6.88;1.35;;;14.60;71.20;;;;;;4983204;28;20372;-57
2022/06/03 01:55:57;;;;;;;4.82;1.75;;;14.60;68.50;;;;;;5009439;28;20034;-59
2022/06/03 01:58:55;;;;;;;3.55;1.73;;;14.40;70.70;;;;;;5010047;28;20021;-60
2022/06/03 02:01:58;;;;;;;3.58;1.60;;;14.40;70.60;;;;;;4992342;28;20120;-60
2022/06/03 02:04:48;;;;;;;4.65;1.77;;;14.20;71.70;;;;;;5008627;28;20438;-59
2022/06/03 02:07:46;;;;;;;3.95;1.50;;;14.30;71.20;;;;;;5016182;28;20033;-59
2022/06/03 02:10:29;;;;;;;5.57;1.83;;;14.40;72.00;;;;;;5001499;28;20084;-59
2022/06/03 02:13:15;;;;;;;6.15;1.30;;;14.40;71.70;;;;;;5002604;28;20022;-60
2022/06/03 02:16:15;;;;;;;2.90;1.10;;;14.30;70.70;;;;;;5008811;28;20022;-59
2022/06/03 02:18:54;;;;;;;5.40;1.65;;;14.20;69.70;;;;;;4992055;28;20053;-60
2022/06/03 02:21:56;;;;;;;4.70;1.45;;;14.20;71.90;;;;;;5010050;28;20080;-66
2022/06/03 02:25:00;;;;;;;6.13;2.00;;;14.30;70.70;;;;;;5005028;28;20029;-59
2022/06/03 02:27:34;;;;;;;3.42;1.70;;;14.30;70.60;;;;;;5009833;28;20353;-59
2022/06/03 02:30:27;;;;;;;3.10;1.58;;;14.50;71.10;;;;;;5009614;28;20017;-58
2022/06/03 02:33:18;;;;;;;2.47;1.25;;;14.70;70.50;;;;;;5009576;28;20025;-59
2022/06/03 02:36:03;;;;;;;3.20;1.23;;;14.80;70.40;;;;;;5009727;28;20049;-59
2022/06/03 02:39:11;;;;;;;3.22;1.40;;;14.90;69.10;;;;;;5009521;28;20032;-59
2022/06/03 02:41:57;;;;;;;2.85;1.10;;;14.90;69.20;;;;;;4976224;28;20041;-59
2022/06/03 02:44:45;;;;;;;2.35;1.13;;;15.00;68.70;;;;;;5009239;28;20030;-59
2022/06/03 02:47:42;;;;;;;5.57;1.17;;;15.00;69.30;;;;;;5008433;28;20052;-60
2022/06/03 02:50:09;;;;;;;2.63;1.35;;;15.20;68.30;;;;;;4996197;28;20028;-59
2022/06/03 02:52:55;;;;;;;2.78;0.90;;;15.30;68.50;;;;;;5009004;28;20021;-59
2022/06/03 02:55:47;;;;;;;2.13;0.90;;;15.50;66.60;;;;;;5006722;28;20100;-59
2022/06/03 02:58:34;;;;;;;1.25;0.85;;;15.80;66.60;;;;;;4999117;28;20148;-58
2022/06/03 03:01:16;;;;;;;1.70;1.13;;;15.80;66.40;;;;;;5007212;28;20052;-58
2022/06/03 03:03:52;;;;;;;4.78;1.13;;;16.00;65.20;;;;;;5007216;28;20109;-58
2022/06/03 03:06:40;;;;;;;3.50;1.02;;;16.00;62.60;;;;;;5008050;28;20057;-58
2022/06/03 03:09:29;;;;;;;4.38;1.10;;;15.80;65.40;;;;;;5007278;28;20145;-58
2022/06/03 03:12:33;;;;;;;3.45;1.10;;;15.80;65.20;;;;;;4991435;28;20036;-59
2022/06/03 03:15:30;;;;;;;2.17;0.82;;;15.70;64.80;;;;;;5001874;28;20399;-58
2022/06/03 03:18:37;;;;;;;3.17;1.00;;;15.60;64.30;;;;;;5008164;28;20017;-58
2022/06/03 03:21:16;;;;;;;3.20;1.00;;;15.50;65.00;;;;;;5009201;28;20026;-57
2022/06/03 03:24:09;;;;;;;1.92;0.80;;;15.40;66.10;;;;;;5009023;28;20107;-57
2022/06/03 03:26:40;;;;;;;4.57;1.10;;;15.30;65.70;;;;;;5009271;28;20034;-58
2022/06/03 03:29:22;;;;;;;3.75;1.15;;;15.20;66.50;;;;;;5009298;28;20026;-57
2022/06/03 03:32:27;;;;;;;2.22;1.52;;;15.20;67.60;;;;;;5009453;28;20014;-58
2022/06/03 03:35:03;;;;;;;2.83;1.25;;;15.10;68.00;;;;;;5009317;28;20026;-58
2022/06/03 03:38:07;;;;;;;3.05;1.02;;;15.20;68.00;;;;;;5008410;28;20029;-58
2022/06/03 03:41:18;;;;;;;3.70;1.45;;;15.30;68.20;;;;;;5009638;28;20030;-57
2022/06/03 03:43:57;;;;;;;6.18;2.05;;;15.30;67.50;;;;;;5016171;28;20037;-57
2022/06/03 03:46:48;;;;;;;3.05;1.20;;;15.40;68.20;;;;;;5004325;28;20034;-59
2022/06/03 03:49:48;;;;;;;6.53;1.90;;;15.40;68.30;;;;;;5012970;28;20042;-58
2022/06/03 03:52:27;;;;;;;2.42;1.05;;;15.20;68.10;;;;;;4977755;28;20533;-58
2022/06/03 03:55:16;;;;;;;2.63;1.30;;;15.20;68.60;;;;;;5016186;28;20417;-59
2022/06/03 03:57:55;;;;;;;2.08;1.20;;;15.10;68.80;;;;;;5005179;28;20033;-58
2022/06/03 04:00:33;;;;;;;4.10;1.33;;;15.00;69.50;;;;;;5015928;28;20030;-62
2022/06/03 04:03:00;;;;;;;4.28;1.40;;;14.90;68.70;;;;;;5020799;28;20029;-58
2022/06/03 04:06:02;;;;;;;2.90;1.20;;;14.80;69.60;;;;;;5022068;28;20029;-58
2022/06/03 04:09:06;;;;;;;3.00;1.30;;;14.80;70.80;;;;;;4999958;28;20026;-58
2022/06/03 04:11:39;;;;;;;3.88;1.30;;;14.70;71.10;;;;;;5019574;28;20525;-59
2022/06/03 04:14:39;;;;;;;3.88;1.52;;;14.60;70.90;;;;;;5004073;28;20044;-59
2022/06/03 04:17:24;;;;;;;3.80;1.30;;;14.50;71.90;;;;;;5020832;28;20018;-58
2022/06/03 04:20:01;;;;;;;3.53;1.45;;;14.50;71.80;;;;;;4996573;28;20049;-58
2022/06/03 04:22:35;;;;;;;1.92;1.13;;;14.40;71.90;;;;;;5010651;28;20525;-59
2022/06/03 04:25:20;;;;;;;4.80;1.33;;;14.40;72.00;;;;;;5016294;28;20702;-63
2022/06/03 04:28:24;;;;;;;3.42;1.50;;;14.40;72.80;;;;;;5027836;28;20018;-57
2022/06/03 04:30:57;;;;;;;4.03;1.10;;;14.40;73.30;;;;;;5001679;28;20388;-58
2022/06/03 04:33:36;;;;;;;3.40;1.30;;;14.40;73.70;;;;;;5013122;28;20026;-58
2022/06/03 04:36:48;;;;;;;4.70;1.80;;;14.50;74.20;;;;;;5009491;28;20137;-59
2022/06/03 04:39:36;;;;;;;3.90;1.38;;;14.50;73.50;;;;;;5011605;28;20113;-59
2022/06/03 04:42:43;;;;;;;8.63;2.35;;;14.50;73.40;;;;;;4995036;28;20033;-59
2022/06/03 04:45:37;;;;;;;9.25;2.08;;;14.50;73.30;;;;;;5007905;28;20057;-59
2022/06/03 04:48:57;;;;;;;9.75;2.65;;;14.40;74.20;;;;;;5005909;28;20041;-59
2022/06/03 04:51:42;;;;;;;3.88;1.92;;;14.30;74.20;;;;;;5003810;28;20098;-58
2022/06/03 04:54:37;;;;;;;3.50;1.52;;;14.30;74.30;;;;;;5003826;28;20022;-59
2022/06/03 04:57:25;;;;;;;5.85;1.50;;;14.20;74.70;;;;;;5004934;28;20069;-58
2022/06/03 05:00:28;;;;;;;5.25;2.05;;;14.10;74.90;;;;;;5006365;28;20026;-59
2022/06/03 05:03:14;;;;;;;11.88;1.85;;;14.10;74.90;;;;;;5002514;28;20053;-59
2022/06/03 05:06:14;;;;;;;6.00;2.08;;;14.00;74.50;;;;;;5011269;28;20037;-58
2022/06/03 05:09:19;;;;;;;3.08;1.20;;;14.00;75.00;;;;;;5001443;28;20025;-58
2022/06/03 05:12:23;;;;;;;3.47;0.90;;;13.90;74.30;;;;;;5009031;28;20479;-57
2022/06/03 05:14:59;;;;;;;2.50;0.65;;;13.80;74.10;;;;;;5006114;28;20072;-58
2022/06/03 05:17:44;;;;;;;2.50;1.10;;;13.70;74.60;;;;;;5008046;28;20442;-58
2022/06/03 05:20:29;;;;;;;1.88;0.90;;;13.60;75.30;;;;;;5010982;28;20025;-58
2022/06/03 05:23:14;;;;;;;2.85;1.00;;;13.50;76.10;;;;;;5010969;28;20108;-58
2022/06/03 05:25:58;;;;;;;;;;;13.50;76.40;;;;;;5010877;28;20042;-58
2022/06/03 05:28:46;;;;;;;3.45;1.25;;;13.40;76.20;;;;;;4999643;28;19918;-58
2022/06/03 05:31:59;;;;;;;2.67;1.13;;;13.40;75.80;;;;;;5015412;28;20076;-58
2022/06/03 05:35:02;;;;;;;1.95;0.95;;;13.40;76.20;;;;;;5004783;28;20021;-58
2022/06/03 05:37:39;;;;;;;3.63;1.23;;;13.40;76.40;;;;;;5010476;28;20010;-58
2022/06/03 05:40:06;;;;;;;5.82;1.30;;;13.30;76.20;;;;;;5012846;28;20416;-59
2022/06/03 05:42:54;;;;;;;2.75;0.93;;;13.30;75.80;;;;;;5010759;28;20032;-58
2022/06/03 05:45:39;;;;;;;5.07;1.40;;;13.30;75.60;;;;;;5007861;28;20490;-58
2022/06/03 05:48:21;;;;;;;4.68;2.08;;;13.30;75.20;;;;;;4996146;28;20057;-59
2022/06/03 05:50:58;;;;;;;2.75;1.20;;;13.30;75.30;;;;;;5015958;28;20033;-58
2022/06/03 05:53:39;;;;;;;2.40;0.95;;;13.20;74.50;;;;;;5011978;28;20509;-58
2022/06/03 05:56:33;;;;;;;5.03;1.40;;;13.20;75.20;;;;;;5008613;28;20029;-58
2022/06/03 05:59:18;;;;;;;5.03;1.17;;;13.10;75.10;;;;;;4992435;28;20523;-58
2022/06/03 06:01:57;;;;;;;2.92;1.00;;;13.00;74.80;;;;;;5009985;28;20109;-58
2022/06/03 06:04:41;;;;;;;5.55;1.10;;;12.90;75.40;;;;;;4998775;28;20053;-58
2022/06/03 06:07:20;;;;;;;3.75;1.08;;;12.80;75.80;;;;;;5010029;28;20056;-58
2022/06/03 06:09:59;;;;;;;4.75;1.13;;;12.70;76.00;;;;;;5009702;28;20030;-58
2022/06/03 06:13:02;;;;;;;6.70;1.25;;;12.60;75.80;;;;;;5010163;28;20101;-58
2022/06/03 06:15:42;;;;;;;3.75;1.27;;;12.60;75.90;;;;;;5009366;28;20014;-59
2022/06/03 06:18:40;;;;;;;3.28;1.35;;;12.60;76.50;;;;;;5009493;28;20028;-59
2022/06/03 06:21:25;;;;;;;4.18;1.52;;;12.50;76.40;;;;;;4999446;28;20049;-59
2022/06/03 06:24:12;;;;;;;2.80;1.20;;;12.50;77.40;;;;;;4993609;28;20091;-59
2022/06/03 06:26:45;;;;;;;2.92;1.63;;;12.40;77.40;;;;;;5008480;28;20034;-60
2022/06/03 06:29:44;;;;;;;3.28;1.25;;;12.40;79.60;;;;;;5009421;28;20021;-59
2022/06/03 06:32:28;;;;;;;2.58;1.00;;;12.20;80.20;;;;;;4996004;28;20021;-57
2022/06/03 06:35:01;;;;;;;3.65;1.25;;;12.10;82.10;;;;;;5007764;28;20471;-57
2022/06/03 06:37:53;;;;;;;2.92;1.00;;;11.90;83.50;;;;;;5008664;28;20026;-57
2022/06/03 06:40:32;;;;;;;2.97;1.30;;;11.80;84.50;;;;;;4997620;28;20101;-58
2022/06/03 06:43:26;;;;;;;3.42;1.40;;;11.70;84.90;;;;;;5016790;28;20029;-57
2022/06/03 06:46:20;;;;;;;3.45;1.23;;;11.70;86.00;;;;;;4996314;28;20033;-57
2022/06/03 06:49:06;;;;;;;2.38;1.10;;;11.60;86.20;;;;;;5006345;28;20048;-58
2022/06/03 06:52:03;;;;;;;3.03;1.40;;;11.50;86.40;;;;;;5008623;28;20034;-57
2022/06/03 06:54:51;;;;;;;5.60;0.90;;;11.50;87.30;;;;;;5001312;28;20506;-58
2022/06/03 06:57:32;;;;;;;1.48;0.80;;;11.40;87.10;;;;;;5003214;28;20518;-57
2022/06/03 07:00:24;;;;;;;3.47;0.75;;;11.30;85.90;;;;;;5003944;28;20052;-57
2022/06/03 07:02:54;;;;;;;1.85;0.75;;;11.10;88.70;;;;;;5024486;28;20120;-58
2022/06/03 07:05:35;;;;;;;2.92;0.90;;;11.00;88.90;;;;;;5009008;28;20075;-58
2022/06/03 07:08:09;;;;;;;4.13;1.42;;;10.90;89.70;;;;;;5008145;28;20066;-58
2022/06/03 07:10:42;;;;;;;2.65;1.08;;;10.90;90.10;;;;;;5012048;28;20049;-58
2022/06/03 07:13:18;;;;;;;1.58;0.80;;;10.80;89.30;;;;;;5014039;28;20084;-58
2022/06/03 07:15:56;;;;;;;3.00;0.70;;;10.80;90.40;;;;;;5010024;28;20136;-58
2022/06/03 07:22:10;;;;;;;3.33;0.90;;;10.70;90.50;;;;;;5007758;28;20059;-58
2022/06/03 07:24:56;;;;;;;1.70;0.70;;;10.60;90.70;;;;;;5014902;28;20109;-59
2022/06/03 07:27:53;;;;;;;1.77;0.80;;;10.60;90.80;;;;;;5009226;28;20034;-58
2022/06/03 07:30:32;;;;;;;1.85;0.85;;;10.60;90.80;;;;;;4980837;28;20091;-59
2022/06/03 07:33:15;;;;;;;2.22;1.08;;;10.50;91.20;;;;;;5014513;28;20034;-59
2022/06/03 07:36:15;;;;;;;3.00;1.30;;;10.40;90.70;;;;;;5011012;28;20487;-59
2022/06/03 07:39:35;;;;;;;2.40;1.30;;;10.40;91.40;;;;;;5012012;28;20030;-60
2022/06/03 07:42:03;;;;;;;3.83;1.33;;;10.30;91.00;;;;;;4968634;28;20030;-58
2022/06/03 07:44:49;;;;;;;6.00;1.55;;;10.30;90.90;;;;;;4998595;28;20061;-58
2022/06/03 07:47:18;;;;;;;2.28;1.27;;;10.30;91.60;;;;;;4994076;28;20704;-58
2022/06/03 07:49:59;;;;;;;2.53;1.10;;;10.30;91.40;;;;;;5012028;28;20349;-57
2022/06/03 07:52:38;;;;;;;7.78;1.48;;;10.30;91.60;;;;;;5012212;28;20014;-58
2022/06/03 07:55:26;;;;;;;3.08;1.40;;;10.40;92.20;;;;;;4994170;28;20022;-58
2022/06/03 07:58:04;;;;;;;3.67;1.00;;;10.40;91.20;;;;;;4994678;28;20117;-58
2022/06/03 08:00:36;;;;;;;1.75;0.70;;;10.50;90.80;;;;;;5011957;28;20022;-59
2022/06/03 08:03:13;;;;;;;1.25;0.73;;;10.60;91.30;;;;;;4994533;28;20129;-58
2022/06/03 08:05:43;;;;;;;2.00;1.00;;;10.60;90.90;;;;;;5015104;28;20084;-59
2022/06/03 08:11:26;;;;;;;1.67;0.77;;;10.60;90.40;;;;;;5016399;28;20506;-59
2022/06/03 08:13:57;;;;;;;1.88;1.05;;;10.60;90.40;;;;;;5009731;28;20053;-58
2022/06/03 08:16:39;;;;;;;1.98;0.88;;;10.60;90.20;;;;;;5010973;28;20386;-56
2022/06/03 08:19:16;;;;;;;1.50;0.90;;;10.50;89.20;;;;;;5009958;28;20021;-54
2022/06/03 08:21:54;;;;;;;1.45;0.70;;;10.50;90.00;;;;;;5014196;28;20465;-58
2022/06/03 08:24:26;;;;;;;1.50;1.05;;;10.50;90.10;;;;;;5015149;28;20103;-57
2022/06/03 08:27:01;;;;;;;3.35;1.20;;;10.50;88.80;;;;;;5020447;28;20033;-59
2022/06/03 08:29:40;;;;;;;2.88;1.13;;;10.50;89.00;;;;;;5022062;28;20033;-56
2022/06/03 08:32:19;;;;;;;4.47;1.02;;;10.40;89.00;;;;;;5012633;28;20033;-59
2022/06/03 08:35:00;;;;;;;2.38;0.80;;;10.40;89.30;;;;;;5016937;28;20064;-57
2022/06/03 08:37:44;;;;;;;3.22;1.23;;;10.40;88.80;;;;;;5018134;28;20036;-59
2022/06/03 08:40:24;;;;;;;2.45;1.10;;;10.30;87.90;;;;;;5018133;28;20030;-59
2022/06/03 08:43:17;;;;;;;1.65;1.02;;;10.30;89.00;;;;;;5014768;28;20025;-57
2022/06/03 08:46:28;;;;;;;4.22;1.50;;;10.20;87.70;;;;;;5016703;28;20126;-59
2022/06/03 08:49:03;;;;;;;3.60;2.20;;;10.20;89.30;;;;;;5012729;28;20053;-58
2022/06/03 08:51:47;;;;;;;2.53;1.35;;;10.20;89.40;;;;;;5014360;28;20034;-58
2022/06/03 08:54:21;;;;;;;1.92;0.98;;;10.20;88.40;;;;;;4990635;28;20521;-56
2022/06/03 08:56:51;;;;;;;16.77;1.65;;;10.20;87.60;;;;;;5008604;28;20033;-57
2022/06/03 08:59:41;;;;;;;1.13;0.70;;;10.10;88.00;;;;;;4991119;28;20169;-58
2022/06/03 09:02:19;;;;;;;2.55;0.98;;;10.10;87.90;;;;;;5013196;28;20108;-57
2022/06/03 09:05:05;;;;;;;2.75;1.08;;;10.10;87.60;;;;;;5015471;28;20053;-57
2022/06/03 09:07:52;;;;;;;8.90;1.30;;;10.10;88.10;;;;;;5003350;28;20069;-62
2022/06/03 09:10:29;;;;;;;2.35;0.70;;;10.10;87.90;;;;;;5008271;28;20022;-55
2022/06/03 09:13:05;;;;;;;1.90;1.02;;;10.10;88.70;;;;;;5009010;28;20033;-54
2022/06/03 09:15:39;;;;;;;1.92;0.95;;;10.10;87.50;;;;;;4991632;28;20038;-56
2022/06/03 09:18:49;;;;;;;1.88;1.00;;;10.10;87.80;;;;;;5007644;28;20101;-56
2022/06/03 09:21:31;;;;;;;2.00;0.90;;;10.10;87.80;;;;;;5006209;28;20586;-55
2022/06/03 09:24:07;;;;;;;3.65;1.20;;;10.00;88.50;;;;;;5006626;28;20053;-53
2022/06/03 09:26:40;;;;;;;2.25;1.08;;;10.00;89.10;;;;;;5006877;28;20494;-54
2022/06/03 09:29:10;;;;;;;2.55;1.20;;;10.00;88.50;;;;;;5006609;28;20387;-56
2022/06/03 09:31:39;;;;;;;2.42;1.38;;;10.00;89.80;;;;;;5006354;28;20034;-57
2022/06/03 09:34:08;;;;;;;5.43;1.95;;;10.00;89.50;;;;;;5008378;28;20068;-56
2022/06/03 09:36:36;;;;;;;4.18;2.20;;;10.10;89.20;;;;;;5007598;28;20033;-54
2022/06/03 09:39:32;;;;;;;4.32;1.35;;;10.20;88.90;;;;;;5007800;28;20036;-57
2022/06/03 09:42:00;;;;;;;3.28;1.77;;;10.10;88.50;;;;;;5005776;28;20033;-54
2022/06/03 09:44:28;;;;;;;3.63;1.52;;;10.00;88.30;;;;;;5008207;28;20029;-61
2022/06/03 09:47:03;;;;;;;3.63;1.70;;;10.00;88.50;;;;;;5008313;28;20494;-57
2022/06/03 09:49:35;;;;;;;3.60;1.38;;;9.90;87.90;;;;;;4968265;28;20082;-54
2022/06/03 09:52:03;;;;;;;2.92;1.17;;;9.80;88.10;;;;;;4969511;28;20034;-58
2022/06/03 09:54:37;;;;;;;4.68;1.30;;;9.80;88.80;;;;;;4967794;28;20133;-56
2022/06/03 09:57:15;;;;;;;2.78;0.98;;;9.70;89.20;;;;;;4968131;28;20061;-57
2022/06/03 09:59:53;;;;;;;1.88;1.08;;;9.80;89.70;;;;;;4968110;28;20065;-56
2022/06/03 10:02:20;;;;;;;1.60;1.00;;;9.70;89.60;;;;;;4968903;28;20023;-56
2022/06/03 10:04:48;;;;;;;3.25;1.00;;;9.80;90.00;;;;;;4968610;28;20042;-55
2022/06/03 10:07:15;;;;;;;2.58;1.05;;;9.80;89.70;;;;;;4967318;28;20126;-56
2022/06/03 10:12:49;;;;;;;1.15;0.70;;;9.80;90.10;;;;;;4966170;28;20149;-63
2022/06/03 10:18:11;;;;;;;2.08;0.80;;;10.00;89.50;;;;;;4957533;28;20464;-53
2022/06/03 10:20:39;;;;;;;1.80;0.65;;;10.10;88.60;;;;;;4963427;28;20026;-56
2022/06/03 10:23:08;;;;;;;0.95;0.60;;;10.10;88.10;;;;;;4965022;28;20369;-55
2022/06/03 10:25:46;;;;;;;1.45;0.80;;;10.20;87.80;;;;;;4976182;28;20034;-56
2022/06/03 10:28:15;;;;;;;1.40;0.57;;;10.20;87.90;;;;;;4970277;28;20050;-54
2022/06/03 10:30:43;;;;;;;2.90;0.75;;;10.30;87.50;;;;;;4968285;28;20034;-56
2022/06/03 10:33:22;;;;;;;1.30;0.60;;;10.20;87.70;;;;;;4970553;28;20027;-55
2022/06/03 10:35:50;;;;;;;2.05;0.90;;;10.20;86.40;;;;;;4967765;28;20142;-55
2022/06/03 10:38:20;;;;;;;1.25;0.60;;;10.10;87.20;;;;;;4974819;28;20015;-56
2022/06/03 10:40:52;;;;;;;2.72;1.05;;;10.10;86.50;;;;;;4974847;28;20152;-56
2022/06/03 10:43:38;;;;;;;1.95;1.05;;;10.00;86.20;;;;;;4973574;28;20022;-56
2022/06/03 10:46:17;;;;;;;2.22;0.93;;;9.90;87.60;;;;;;4968165;28;20098;-56
2022/06/03 10:48:46;;;;;;;3.55;1.40;;;9.90;89.70;;;;;;4991561;28;20168;-55
2022/06/03 11:02:44;;;;;;;1.00;0.60;;;9.60;88.60;;;;;;5005215;28;20041;-55
2022/06/03 11:05:25;;;;;;;1.38;0.90;;;9.60;89.90;;;;;;5013859;28;20025;-57
2022/06/03 11:08:05;;;;;;;2.75;0.57;;;9.60;89.80;;;;;;5007451;28;20573;-55
2022/06/03 11:10:42;;;;;;;2.35;1.10;;;9.60;89.80;;;;;;5019712;28;20076;-56
2022/06/03 11:13:12;;;;;;;2.22;0.70;;;9.60;90.30;;;;;;5012986;28;20028;-56
2022/06/03 11:15:42;;;;;;;1.35;0.77;;;9.50;90.30;;;;;;5014886;28;20030;-56
2022/06/03 11:18:20;;;;;;;1.35;0.65;;;9.50;90.30;;;;;;5012222;28;20116;-54
2022/06/03 11:20:50;;;;;;;2.80;1.08;;;9.50;90.50;;;;;;5012487;28;20360;-55
2022/06/03 11:23:19;;;;;;;2.65;0.85;;;9.50;90.80;;;;;;5015963;28;20056;-54
2022/06/03 11:25:57;;;;;;;1.58;0.90;;;9.50;90.80;;;;;;5012314;28;20057;-57
2022/06/03 11:28:47;;;;;;;2.42;0.70;;;9.60;90.50;;;;;;5009200;28;20030;-54
2022/06/03 11:31:30;;;;;;;1.05;0.52;;;9.60;90.20;;;;;;5000364;28;20411;-55
2022/06/03 11:34:06;;;;;;;1.42;0.70;;;9.50;90.20;;;;;;4997920;28;20034;-55
2022/06/03 11:36:54;;;;;;;1.30;0.68;;;9.50;90.30;;;;;;5010697;28;20025;-54
2022/06/03 11:39:36;;;;;;;2.33;1.08;;;9.60;90.60;;;;;;5013427;28;20034;-56
2022/06/03 11:42:15;;;;;;;4.32;0.80;;;9.60;90.50;;;;;;5023271;28;20033;-54
2022/06/03 11:45:01;;;;;;;2.53;1.08;;;9.50;90.40;;;;;;5001827;28;20034;-56
2022/06/03 11:47:48;;;;;;;3.17;1.20;;;9.50;90.10;;;;;;5017355;28;20041;-57
2022/06/03 11:50:21;;;;;;;2.20;1.10;;;9.50;90.00;;;;;;5016218;28;20026;-55
2022/06/03 11:52:51;;;;;;;4.75;1.55;;;9.50;90.10;;;;;;5012502;28;20431;-56
2022/06/03 11:55:21;;;;;;;3.13;1.48;;;9.50;90.30;;;;;;5005757;28;20030;-54
2022/06/03 11:58:01;;;;;;;3.78;1.63;;;9.50;90.40;;;;;;5014820;28;20105;-55
2022/06/03 12:00:33;;;;;;;4.00;1.40;;;9.40;90.70;;;;;;4997086;28;20032;-57
2022/06/03 12:03:23;;;;;;;4.15;1.13;;;9.40;90.90;;;;;;5012829;28;20520;-56
2022/06/03 12:06:03;;;;;;;3.05;1.30;;;9.50;91.30;;;;;;5008347;28;20112;-55
2022/06/03 12:08:46;;;;;;;1.70;0.93;;;9.50;91.40;;;;;;5011663;28;20053;-56
2022/06/03 12:14:37;;;;;;;2.72;1.20;;;9.40;91.90;;;;;;5009534;28;20100;-55
2022/06/03 12:17:13;;;;;;;3.08;1.58;;;9.40;92.00;;;;;;5026063;28;20033;-52
2022/06/03 12:19:44;;;;;;;2.42;1.10;;;9.40;91.80;;;;;;5024710;28;20045;-54
2022/06/03 12:22:29;;;;;;;2.58;1.10;;;9.40;91.90;;;;;;5011837;28;20045;-56
2022/06/03 12:24:59;;;;;;;2.42;1.30;;;9.40;92.00;;;;;;5013534;28;20030;-53
2022/06/03 12:27:39;;;;;;;2.78;1.50;;;9.40;92.40;;;;;;5016827;28;20405;-55
2022/06/03 12:30:17;;;;;;;2.15;1.30;;;9.40;92.50;;;;;;5013080;28;20025;-55
2022/06/03 12:33:04;;;;;;;3.28;1.25;;;9.40;92.80;;;;;;5010278;28;20065;-56
2022/06/03 12:35:44;;;;;;;3.25;1.50;;;9.30;93.00;;;;;;5011599;28;20065;-59
2022/06/03 12:38:20;;;;;;;4.90;1.98;;;9.30;92.90;;;;;;5010251;28;20502;-59
2022/06/03 12:40:49;;;;;;;2.72;1.30;;;9.30;93.00;;;;;;5005512;28;20042;-57
2022/06/03 12:43:45;;;;;;;3.13;1.50;;;9.30;93.20;;;;;;4991830;28;20026;-58
2022/06/03 12:46:43;;;;;;;3.30;1.38;;;9.30;93.20;;;;;;5003660;28;20108;-55
2022/06/03 12:49:45;;;;;;;2.33;1.30;;;9.30;93.30;;;;;;4971528;28;20045;-56
2022/06/03 12:52:35;;;;;;;1.95;1.00;;;9.20;93.30;;;;;;4969241;28;20023;-56
2022/06/03 12:55:06;;;;;;;4.75;1.27;;;9.20;93.40;;;;;;4970163;28;20054;-53
2022/06/03 12:58:01;;;;;;;5.72;1.67;;;9.20;93.30;;;;;;4971719;28;20106;-55
2022/06/03 13:00:37;;;;;;;4.03;1.33;;;9.20;93.30;;;;;;4969821;28;20086;-57
2022/06/03 13:03:18;;;;;;;4.28;1.77;;;9.20;93.40;;;;;;4972239;28;20057;-58
2022/06/03 13:05:48;;;;;;;2.42;1.30;;;9.20;93.30;;;;;;4972497;28;20038;-58
2022/06/03 13:08:33;;;;;;;2.95;1.20;;;9.20;93.30;;;;;;4972243;28;20133;-56
2022/06/03 13:11:02;;;;;;;;;;;9.20;93.10;;;;;;4973793;28;20071;-58
2022/06/03 13:13:29;;;;;;;2.00;1.10;;;9.20;93.10;;;;;;4980217;28;19910;-58
2022/06/03 13:16:16;;;;;;;1.98;1.08;;;9.20;93.00;;;;;;4970701;28;20030;-57
2022/06/03 13:18:49;;;;;;;2.13;1.20;;;9.20;92.90;;;;;;4973121;28;20077;-54
2022/06/03 13:21:22;;;;;;;3.10;1.20;;;9.20;93.00;;;;;;4987807;28;20387;-57
2022/06/03 13:23:53;;;;;;;2.97;1.52;;;9.20;93.00;;;;;;4977394;28;20690;-55
2022/06/03 13:26:23;;;;;;;2.08;1.20;;;9.10;93.00;;;;;;4971979;28;20042;-57
2022/06/03 13:29:07;;;;;;;2.22;1.05;;;9.10;93.20;;;;;;4971876;28;20100;-57
2022/06/03 13:31:43;;;;;;;2.20;1.20;;;9.10;93.30;;;;;;4971069;28;20019;-53
2022/06/03 13:34:11;;;;;;;2.35;1.20;;;9.10;93.40;;;;;;4971808;28;20694;-56
2022/06/03 13:36:53;;;;;;;3.17;1.90;;;9.10;93.70;;;;;;4970724;28;20384;-56
2022/06/03 13:39:29;;;;;;;4.50;1.98;;;9.10;93.70;;;;;;4971000;28;20791;-56
2022/06/03 13:45:03;;;;;;;4.88;2.28;;;9.10;93.80;;;;;;4971788;28;20456;-57
2022/06/03 13:47:45;;;;;;;5.10;2.33;;;9.10;93.80;;;;;;4972177;28;20039;-58
2022/06/03 13:50:18;;;;;;;6.88;2.40;;;9.20;93.90;;;;;;5007383;28;20392;-57
2022/06/03 13:52:55;;;;;;;5.20;1.75;;;9.20;93.90;;;;;;4989752;28;20780;-55
2022/06/03 13:55:27;;;;;;;4.82;1.60;;;9.20;93.90;;;;;;5010254;28;20034;-55
2022/06/03 13:58:02;;;;;;;5.45;1.48;;;9.20;93.90;;;;;;5011959;28;20071;-54
2022/06/03 14:00:35;;;;;;;2.55;1.30;;;9.20;93.80;;;;;;4993222;28;20033;-63
2022/06/03 14:03:10;;;;;;;4.70;1.60;;;9.20;93.90;;;;;;5010188;28;20037;-56
2022/06/03 14:05:51;;;;;;;3.97;1.85;;;9.20;93.90;;;;;;5009595;28;20104;-58
2022/06/03 14:08:41;;;;;;;2.78;1.45;;;9.20;93.90;;;;;;5024471;28;20623;-54
2022/06/03 14:11:28;;;;;;;7.65;2.17;;;9.20;93.90;;;;;;5026510;28;20065;-54
2022/06/03 14:13:58;;;;;;;2.90;1.83;;;9.20;94.00;;;;;;5025752;28;20398;-55
2022/06/03 14:16:42;;;;;;;4.78;2.50;;;9.20;94.10;;;;;;5016183;28;20030;-52
2022/06/03 14:19:09;;;;;;;4.35;2.40;;;9.20;94.30;;;;;;5009505;28;20173;-56
2022/06/03 14:21:49;;;;;;;3.17;1.92;;;9.20;94.40;;;;;;5009596;28;20026;-57
2022/06/03 14:24:29;;;;;;;5.90;2.30;;;9.10;94.50;;;;;;4997475;28;20042;-54
2022/06/03 14:27:14;;;;;;;6.43;2.92;;;9.20;94.80;;;;;;5007613;28;20030;-55
2022/06/03 14:30:18;;;;;;;3.42;2.35;;;9.10;94.70;;;;;;5009539;28;20487;-56
2022/06/03 14:32:57;;;;;;;5.10;2.53;;;9.10;94.70;;;;;;4997654;28;20026;-53
2022/06/03 14:35:40;;;;;;;3.47;2.20;;;9.00;94.90;;;;;;5009879;28;20481;-53
2022/06/03 14:38:25;;;;;;;3.72;2.10;;;9.00;95.00;;;;;;5009302;28;20438;-58
2022/06/03 14:40:53;;;;;;;2.90;1.67;;;9.00;95.10;;;;;;5009244;28;20018;-53
2022/06/03 14:43:24;;;;;;;3.10;1.35;;;8.90;95.20;;;;;;4990590;28;20026;-55